| time (UTC) | temp F | wind direction | speed MPH | gust MPH | rain 1hr in | rain 24hr in | rain mn in | humidity % | barometer mb |
| 20260831004745 | 56 | 155 | 0.0 | 0.0 | 0.00 | 0.59 | 0.30 | 69 | 1023.8 |
| 20260831003737 | 56 | 155 | 0.0 | 0.0 | 0.00 | 0.59 | 0.30 | 68 | 1024.1 |
| 20260831002734 | 57 | 155 | 1.0 | 4.0 | 0.00 | 0.61 | 0.30 | 68 | 1024.1 |
| 20260831001723 | 57 | 172 | 0.0 | 2.0 | 0.00 | 0.63 | 0.30 | 68 | 1024.0 |
| 20260830235544 | 57 | 173 | 0.0 | 0.0 | 0.00 | 0.64 | 0.30 | 63 | 1023.5 |
| 20260830234606 | 57 | 197 | 0.0 | 0.0 | 0.00 | 0.66 | 0.30 | 60 | 1023.4 |
| 20260830233616 | 57 | 198 | 0.0 | 0.0 | 0.00 | 0.71 | 0.30 | 60 | 1023.5 |
| 20260830232619 | 58 | 198 | 0.0 | 0.0 | 0.00 | 0.71 | 0.30 | 60 | 1023.7 |
| 20260830231639 | 59 | 233 | 5.0 | 16.0 | 0.00 | 0.71 | 0.30 | 57 | 1023.4 |
| 20260830230611 | 61 | 97 | 1.0 | 8.0 | 0.00 | 0.71 | 0.30 | 52 | 1023.6 |
| 20260830225537 | 63 | 277 | 0.0 | 2.0 | 0.00 | 0.71 | 0.30 | 55 | 1023.8 |
| 20260830224518 | 64 | 248 | 1.0 | 4.0 | 0.00 | 0.71 | 0.30 | 52 | 1023.7 |
| 20260830223518 | 65 | 272 | 0.0 | 5.0 | 0.00 | 0.71 | 0.30 | 51 | 1023.7 |
| 20260830222444 | 65 | 283 | 1.0 | 7.0 | 0.00 | 0.71 | 0.30 | 47 | 1023.5 |
| 20260830221416 | 65 | 198 | 2.0 | 7.0 | 0.00 | 0.71 | 0.30 | 53 | 1023.6 |
| 20260830220432 | 65 | 159 | 2.0 | 6.0 | 0.00 | 0.71 | 0.30 | 50 | 1023.5 |
| 20260830215545 | 64 | 170 | 2.0 | 9.0 | 0.00 | 0.71 | 0.30 | 52 | 1023.3 |
| 20260830214552 | 64 | 205 | 2.0 | 11.0 | 0.00 | 0.71 | 0.30 | 52 | 1023.7 |
| 20260830212447 | 64 | 91 | 0.0 | 5.0 | 0.00 | 0.71 | 0.30 | 62 | 1023.7 |
| 20260830211503 | 63 | 196 | 0.0 | 0.0 | 0.00 | 0.71 | 0.30 | 66 | 1023.6 |
| 20260830205321 | 64 | 185 | 1.0 | 0.0 | 0.00 | 0.71 | 0.30 | 62 | 1023.9 |
| 20260830204313 | 65 | 205 | 3.0 | 13.0 | 0.00 | 0.71 | 0.30 | 59 | 1024.0 |
| 20260830203331 | 65 | 218 | 3.0 | 13.0 | 0.00 | 0.71 | 0.30 | 61 | 1023.9 |
| 20260830202259 | 64 | 211 | 1.0 | 9.0 | 0.00 | 0.71 | 0.30 | 63 | 1024.1 |
| 20260830201311 | 63 | 163 | 2.0 | 9.0 | 0.00 | 0.71 | 0.30 | 65 | 1024.2 |
| 20260830195219 | 64 | 184 | 2.0 | 9.0 | 0.00 | 0.71 | 0.30 | 61 | 1024.3 |
| 20260830194207 | 63 | 146 | 2.0 | 9.0 | 0.00 | 0.71 | 0.30 | 60 | 1024.3 |
| 20260830193136 | 65 | 213 | 1.0 | 10.0 | 0.00 | 0.71 | 0.30 | 60 | 1024.4 |
| 20260830192107 | 64 | 186 | 1.0 | 10.0 | 0.00 | 0.71 | 0.30 | 65 | 1024.4 |
| 20260830191041 | 63 | 302 | 0.0 | 5.0 | 0.00 | 0.71 | 0.30 | 66 | 1024.5 |
| 20260830190005 | 62 | 220 | 0.0 | 7.0 | 0.00 | 0.71 | 0.30 | 73 | 1024.7 |
| 20260830183851 | 61 | 234 | 0.0 | 6.0 | 0.00 | 0.71 | 0.30 | 72 | 1024.9 |
| 20260830182855 | 60 | 269 | 1.0 | 9.0 | 0.00 | 0.71 | 0.30 | 70 | 1024.9 |
| 20260830181848 | 59 | 149 | 2.0 | 9.0 | 0.00 | 0.71 | 0.30 | 79 | 1024.9 |
| 20260830180847 | 60 | 132 | 1.0 | 8.0 | 0.00 | 0.71 | 0.30 | 77 | 1024.7 |
| 20260830175820 | 60 | 177 | 1.0 | 8.0 | 0.00 | 0.71 | 0.30 | 81 | 1024.7 |
| 20260830173652 | 57 | 159 | 1.0 | 0.0 | 0.00 | 0.71 | 0.30 | 86 | 1024.8 |
| 20260830172658 | 56 | 150 | 2.0 | 7.0 | 0.00 | 0.71 | 0.30 | 84 | 1024.7 |
| 20260830171721 | 56 | 139 | 1.0 | 6.0 | 0.00 | 0.71 | 0.30 | 86 | 1024.6 |
| 20260830170742 | 55 | 150 | 0.0 | 3.0 | 0.00 | 0.71 | 0.30 | 88 | 1024.5 |
| 20260830164615 | 55 | 110 | 4.0 | 13.0 | 0.00 | 0.71 | 0.30 | 85 | 1024.3 |
| 20260830163635 | 55 | 119 | 6.0 | 13.0 | 0.00 | 0.71 | 0.30 | 86 | 1024.3 |
| 20260830162619 | 55 | 116 | 6.0 | 9.0 | 0.00 | 0.71 | 0.30 | 87 | 1024.2 |
| 20260830161627 | 54 | 122 | 5.0 | 9.0 | 0.00 | 0.71 | 0.30 | 88 | 1024.1 |
| 20260830160648 | 54 | 123 | 1.0 | 8.0 | 0.00 | 0.71 | 0.30 | 89 | 1024.2 |
| 20260830155628 | 53 | 123 | 1.0 | 6.0 | 0.00 | 0.71 | 0.30 | 90 | 1024.2 |
| 20260830154606 | 52 | 134 | 1.0 | 6.0 | 0.00 | 0.71 | 0.30 | 89 | 1024.3 |
| 20260830153553 | 51 | 137 | 1.0 | 5.0 | 0.00 | 0.71 | 0.30 | 90 | 1024.5 |
| 20260830152525 | 50 | 111 | 1.0 | 5.0 | 0.00 | 0.71 | 0.30 | 90 | 1024.5 |
| 20260830151549 | 49 | 150 | 2.0 | 10.0 | 0.00 | 0.71 | 0.30 | 90 | 1024.2 |
| 20260830150608 | 49 | 155 | 3.0 | 10.0 | 0.00 | 0.70 | 0.28 | 90 | 1024.6 |
| 20260830145605 | 50 | 145 | 1.0 | 8.0 | 0.00 | 0.70 | 0.28 | 90 | 1024.2 |
| 20260830144606 | 49 | 148 | 2.0 | 8.0 | 0.00 | 0.70 | 0.28 | 90 | 1024.3 |
| 20260830143546 | 49 | 169 | 3.0 | 4.0 | 0.00 | 0.70 | 0.28 | 90 | 1024.4 |
| 20260830142957 | 49 | 147 | 1.0 | 8.0 | 0.05 | 0.70 | 0.28 | 90 | 1024.7 |
| 20260830142000 | 50 | 81 | 3.0 | 10.0 | 0.46 | 0.70 | 0.28 | 89 | 1024.4 |
| 20260830140940 | 51 | 267 | 4.0 | 9.0 | 0.00 | 0.46 | 0.06 | 89 | 1023.4 |
| 20260830135913 | 51 | 109 | 4.0 | 15.0 | 0.00 | 0.46 | 0.05 | 89 | 1023.7 |
| 20260830134852 | 50 | 167 | 6.0 | 14.0 | 0.00 | 0.46 | 0.05 | 90 | 1022.5 |
| 20260830133826 | 49 | 140 | 0.0 | 8.0 | 0.00 | 0.46 | 0.05 | 90 | 1022.6 |
| 20260830130532 | 50 | 5 | 0.0 | 0.0 | 0.00 | 0.46 | 0.05 | 90 | 1023.3 |
| 20260830125542 | 50 | 351 | 0.0 | 8.0 | 0.00 | 0.46 | 0.05 | 89 | 1023.2 |
| 20260830124514 | 50 | 250 | 1.0 | 7.0 | 0.00 | 0.46 | 0.05 | 89 | 1023.1 |
| 20260830123512 | 50 | 323 | 2.0 | 9.0 | 0.00 | 0.46 | 0.05 | 89 | 1023.0 |
| 20260830122522 | 50 | 142 | 4.0 | 12.0 | 0.00 | 0.46 | 0.05 | 89 | 1022.3 |
| 20260830121455 | 50 | 182 | 3.0 | 12.0 | 0.00 | 0.46 | 0.05 | 89 | 1022.3 |
| 20260830120520 | 50 | 183 | 4.0 | 17.0 | 0.00 | 0.46 | 0.05 | 89 | 1022.3 |
| 20260830115522 | 49 | 182 | 5.0 | 17.0 | 0.00 | 0.46 | 0.05 | 89 | 1022.2 |
| 20260830114501 | 49 | 182 | 5.0 | 13.0 | 0.00 | 0.46 | 0.05 | 89 | 1022.3 |
| 20260830113510 | 49 | 146 | 4.0 | 12.0 | 0.00 | 0.46 | 0.05 | 89 | 1022.4 |
| 20260830112523 | 49 | 242 | 3.0 | 10.0 | 0.00 | 0.46 | 0.05 | 89 | 1022.5 |
| 20260830111517 | 49 | 146 | 2.0 | 10.0 | 0.00 | 0.46 | 0.05 | 89 | 1022.6 |
| 20260830110530 | 49 | 169 | 2.0 | 7.0 | 0.00 | 0.46 | 0.05 | 89 | 1022.7 |
| 20260830105535 | 49 | 140 | 1.0 | 8.0 | 0.00 | 0.46 | 0.05 | 89 | 1022.6 |
| 20260830104505 | 49 | 153 | 3.0 | 8.0 | 0.00 | 0.46 | 0.05 | 89 | 1022.8 |
| 20260830102400 | 49 | 140 | 4.0 | 11.0 | 0.00 | 0.45 | 0.04 | 89 | 1022.8 |
| 20260830095043 | 49 | 150 | 1.0 | 9.0 | 0.00 | 0.45 | 0.04 | 89 | 1023.5 |
| 20260830094016 | 49 | 172 | 3.0 | 9.0 | 0.00 | 0.45 | 0.04 | 89 | 1023.3 |
| 20260830093029 | 49 | 144 | 3.0 | 9.0 | 0.00 | 0.45 | 0.04 | 89 | 1023.2 |
| 20260830092054 | 49 | 142 | 2.0 | 9.0 | 0.00 | 0.44 | 0.03 | 89 | 1023.5 |
| 20260830091023 | 49 | 151 | 2.0 | 7.0 | 0.00 | 0.44 | 0.03 | 89 | 1023.1 |
| 20260830084905 | 49 | 155 | 3.0 | 10.0 | 0.00 | 0.44 | 0.03 | 89 | 1023.3 |
| 20260830083840 | 49 | 173 | 3.0 | 9.0 | 0.00 | 0.45 | 0.03 | 89 | 1023.0 |
| 20260830082836 | 49 | 165 | 4.0 | 10.0 | 0.06 | 0.45 | 0.03 | 90 | 1022.9 |
| 20260830080704 | 48 | 173 | 3.0 | 9.0 | 0.00 | 0.43 | 0.01 | 89 | 1023.4 |
| 20260830075647 | 48 | 159 | 2.0 | 9.0 | 0.00 | 0.43 | 0.01 | 89 | 1023.0 |
| 20260830074646 | 49 | 137 | 3.0 | 9.0 | 0.00 | 0.43 | 0.01 | 89 | 1023.1 |
| 20260830073640 | 49 | 134 | 1.0 | 7.0 | 0.00 | 0.47 | 0.01 | 90 | 1023.7 |
| 20260830072610 | 49 | 17 | 0.0 | 0.0 | 0.00 | 0.55 | 0.00 | 90 | 1023.9 |
| 20260830071609 | 49 | 20 | 1.0 | 4.0 | 0.00 | 0.57 | 0.00 | 89 | 1023.3 |
| 20260830070559 | 48 | 13 | 2.0 | 9.0 | 0.00 | 0.57 | 0.00 | 89 | 1022.7 |
| 20260830065620 | 48 | 59 | 1.0 | 4.0 | 0.00 | 0.58 | 0.00 | 89 | 1022.6 |
| 20260830063515 | 49 | 15 | 0.0 | 7.0 | 0.00 | 0.59 | 0.00 | 89 | 1022.7 |
| 20260830062450 | 49 | 13 | 2.0 | 10.0 | 0.00 | 0.59 | 0.00 | 89 | 1022.8 |
| 20260830061447 | 49 | 13 | 1.0 | 6.0 | 0.00 | 0.59 | 0.00 | 89 | 1023.0 |
| 20260830060444 | 49 | 12 | 3.0 | 1.0 | 0.06 | 0.59 | 0.00 | 89 | 1023.1 |
| 20260830055445 | 50 | 19 | 0.0 | 9.0 | 0.10 | 0.58 | 0.57 | 89 | 1023.9 |
| 20260830054451 | 50 | 298 | 1.0 | 9.0 | 0.26 | 0.56 | 0.55 | 89 | 1024.3 |
| 20260830053512 | 50 | 188 | 0.0 | 4.0 | 0.04 | 0.53 | 0.52 | 89 | 1025.0 |
| 20260830052452 | 51 | 160 | 0.0 | 0.0 | 0.08 | 0.53 | 0.52 | 89 | 1024.7 |
| 20260830051436 | 51 | 152 | 1.0 | 8.0 | 0.10 | 0.50 | 0.51 | 89 | 1024.3 |
| 20260830050420 | 51 | 152 | 2.0 | 8.0 | 0.13 | 0.49 | 0.48 | 89 | 1024.4 |
| 20260830045438 | 51 | 126 | 2.0 | 7.0 | 0.17 | 0.47 | 0.46 | 89 | 1024.5 |
| 20260830044436 | 51 | 252 | 0.0 | 1.0 | 0.12 | 0.43 | 0.42 | 89 | 1024.7 |
| 20260830043424 | 51 | 258 | 0.0 | 0.0 | 0.06 | 0.40 | 0.40 | 89 | 1024.5 |
| 20260830042447 | 52 | 257 | 1.0 | 7.0 | 0.00 | 0.40 | 0.38 | 88 | 1024.5 |
| 20260830040340 | 51 | 149 | 5.0 | 18.0 | 0.00 | 0.39 | 0.38 | 88 | 1022.5 |
| 20260830035342 | 51 | 142 | 4.0 | 14.0 | 0.00 | 0.39 | 0.38 | 88 | 1022.0 |
| 20260830034329 | 51 | 176 | 2.0 | 10.0 | 0.00 | 0.39 | 0.38 | 88 | 1021.8 |
| 20260830032158 | 51 | 130 | 5.0 | 13.0 | 0.00 | 0.39 | 0.38 | 89 | 1021.5 |
| 20260830031159 | 51 | 110 | 4.0 | 11.0 | 0.00 | 0.39 | 0.38 | 89 | 1021.3 |
| 20260830030136 | 51 | 144 | 1.0 | 6.0 | 0.00 | 0.39 | 0.38 | 89 | 1021.6 |
| 20260830025157 | 51 | 155 | 3.0 | 8.0 | 0.00 | 0.39 | 0.38 | 89 | 1021.7 |
| 20260830024203 | 52 | 143 | 4.0 | 8.0 | 0.00 | 0.39 | 0.38 | 89 | 1021.7 |
| 20260830023208 | 53 | 124 | 0.0 | 2.0 | 0.04 | 0.39 | 0.38 | 89 | 1022.1 |
| 20260830022215 | 53 | 134 | 2.0 | 11.0 | 0.09 | 0.39 | 0.38 | 89 | 1022.6 |
| 20260830021145 | 53 | 284 | 1.0 | 10.0 | 0.10 | 0.37 | 0.37 | 88 | 1023.4 |
| 20260830020112 | 53 | 275 | 1.0 | 10.0 | 0.38 | 0.33 | 0.34 | 88 | 1023.8 |
| 20260830015100 | 53 | 166 | 0.0 | 4.0 | 0.00 | 0.30 | 0.28 | 88 | 1021.8 |
| 20260830014118 | 53 | 132 | 0.0 | 2.0 | 0.00 | 0.30 | 0.28 | 87 | 1021.1 |
| 20260830013137 | 53 | 170 | 0.0 | 0.0 | 0.00 | 0.30 | 0.28 | 87 | 1021.2 |
| 20260830012159 | 54 | 188 | 0.0 | 0.0 | 0.00 | 0.30 | 0.28 | 87 | 1021.1 |
| 20260830011208 | 54 | 186 | 0.0 | 1.0 | 0.00 | 0.30 | 0.28 | 86 | 1020.7 |
| 20260830010142 | 54 | 153 | 0.0 | 10.0 | 0.00 | 0.30 | 0.28 | 84 | 1020.7 |